createdAt,value
2023-05-02T00:00:24.187Z,11.19
2023-05-02T00:01:48.697Z,10.87
2023-05-02T00:03:10.705Z,10.79
2023-05-02T00:04:33.660Z,10.78
2023-05-02T00:05:56.586Z,10.72
2023-05-02T00:07:18.415Z,10.93
2023-05-02T00:08:41.279Z,10.77
2023-05-02T00:10:04.208Z,10.68
2023-05-02T00:11:26.210Z,10.72
2023-05-02T00:12:49.001Z,10.82
2023-05-02T00:14:11.766Z,10.95
2023-05-02T00:15:33.634Z,11.00
2023-05-02T00:16:57.808Z,10.98
2023-05-02T00:18:20.628Z,10.84
2023-05-02T00:19:42.491Z,10.82
2023-05-02T00:21:05.671Z,10.76
2023-05-02T00:22:28.333Z,10.73
2023-05-02T00:23:52.097Z,10.92
2023-05-02T00:25:16.242Z,10.68
2023-05-02T00:26:39.053Z,10.59
2023-05-02T00:28:02.344Z,10.42
2023-05-02T00:29:25.073Z,10.34
2023-05-02T00:30:48.015Z,10.28
2023-05-02T00:32:11.750Z,10.37
2023-05-02T00:33:34.584Z,10.39
2023-05-02T00:34:56.496Z,10.51
2023-05-02T00:36:20.968Z,10.19
2023-05-02T00:37:43.743Z,10.24
2023-05-02T00:39:05.713Z,10.09
2023-05-02T00:40:28.497Z,10.10
2023-05-02T00:41:56.132Z,9.89
2023-05-02T00:43:19.079Z,9.86
2023-05-02T00:44:40.891Z,9.83
2023-05-02T00:46:04.902Z,9.80
2023-05-02T00:47:29.357Z,9.95
2023-05-02T00:48:51.306Z,10.04
2023-05-02T00:50:14.204Z,9.96
2023-05-02T00:51:36.283Z,9.88
2023-05-02T00:53:01.883Z,9.95
2023-05-02T00:54:24.659Z,9.87
2023-05-02T00:55:49.492Z,9.87
2023-05-02T00:57:11.385Z,9.98
2023-05-02T00:58:34.583Z,10.16
2023-05-02T00:59:58.313Z,10.21
2023-05-02T01:01:34.366Z,10.23
2023-05-02T01:03:11.378Z,10.30
2023-05-02T01:04:44.264Z,10.73
2023-05-02T01:06:18.158Z,11.09
2023-05-02T01:07:54.749Z,11.41
2023-05-02T01:09:26.530Z,11.80
2023-05-02T01:10:53.621Z,11.99
2023-05-02T01:12:27.973Z,12.13
2023-05-02T01:13:54.381Z,11.77
2023-05-02T01:15:19.199Z,11.96
2023-05-02T01:16:44.808Z,12.15
2023-05-02T01:18:12.244Z,12.22
2023-05-02T01:19:36.577Z,12.23
2023-05-02T01:21:02.547Z,11.70
2023-05-02T01:22:26.617Z,11.93
2023-05-02T01:23:58.586Z,11.52
2023-05-02T01:25:30.912Z,11.39
2023-05-02T01:27:08.007Z,11.51
2023-05-02T01:28:41.125Z,11.78
2023-05-02T01:30:07.953Z,11.28
2023-05-02T01:31:35.395Z,11.68
2023-05-02T01:32:39.395Z,11.29
2023-05-02T01:33:46.428Z,11.62
2023-05-02T01:34:49.834Z,11.70
2023-05-02T01:35:54.129Z,11.82
2023-05-02T01:36:58.750Z,11.73
2023-05-02T01:38:03.354Z,11.73
2023-05-02T01:39:07.508Z,11.84
2023-05-02T01:40:12.326Z,11.29
2023-05-02T01:41:14.976Z,11.24
2023-05-02T01:42:20.665Z,11.32
2023-05-02T01:43:25.444Z,11.45
2023-05-02T01:44:30.176Z,11.77
2023-05-02T01:45:37.429Z,12.03
2023-05-02T01:46:43.703Z,12.25
2023-05-02T01:47:47.389Z,12.44
2023-05-02T01:48:52.412Z,12.58
2023-05-02T01:49:55.171Z,12.60
2023-05-02T01:50:58.532Z,12.62
2023-05-02T01:52:04.561Z,12.66
2023-05-02T01:53:11.264Z,12.65
2023-05-02T01:54:15.864Z,11.61
2023-05-02T01:55:18.349Z,11.86
2023-05-02T01:56:22.287Z,12.07
2023-05-02T01:57:24.471Z,12.28
2023-05-02T01:58:30.357Z,12.44
2023-05-02T01:59:34.038Z,12.55
2023-05-02T02:00:39.087Z,12.67
2023-05-02T02:01:43.606Z,12.49
2023-05-02T02:02:48.090Z,12.51
2023-05-02T02:03:50.094Z,12.68
2023-05-02T02:04:55.891Z,12.70
2023-05-02T02:05:59.500Z,12.48
2023-05-02T02:07:05.201Z,11.78
2023-05-02T02:08:08.016Z,11.79
2023-05-02T02:09:11.119Z,12.07
2023-05-02T02:10:14.179Z,11.82
2023-05-02T02:11:20.864Z,11.91
2023-05-02T02:12:27.016Z,11.80
2023-05-02T02:13:34.396Z,11.96
2023-05-02T02:14:39.706Z,12.28
2023-05-02T02:15:47.132Z,12.50
2023-05-02T02:16:54.746Z,12.47
2023-05-02T02:18:00.334Z,12.69
2023-05-02T02:19:08.342Z,12.83
2023-05-02T02:20:13.597Z,12.52
2023-05-02T02:21:19.098Z,12.12
2023-05-02T02:22:24.468Z,12.36
2023-05-02T02:23:30.145Z,12.48
2023-05-02T02:24:34.291Z,12.70
2023-05-02T02:25:38.482Z,12.62
2023-05-02T02:26:41.358Z,12.48
2023-05-02T02:27:43.434Z,12.58
2023-05-02T02:28:46.550Z,12.66
2023-05-02T02:29:48.364Z,12.48
2023-05-02T02:30:52.575Z,12.45
2023-05-02T02:31:54.553Z,12.46
2023-05-02T02:32:57.427Z,12.21
2023-05-02T02:33:59.694Z,12.34
2023-05-02T02:35:03.976Z,12.54
2023-05-02T02:36:11.907Z,12.66
2023-05-02T02:37:19.149Z,12.72
2023-05-02T02:38:31.783Z,12.87
2023-05-02T02:39:45.420Z,12.06
2023-05-02T02:40:54.524Z,11.88
2023-05-02T02:42:04.229Z,12.18
2023-05-02T02:43:12.855Z,12.41
2023-05-02T02:44:28.524Z,12.49
2023-05-02T02:45:35.403Z,12.52
2023-05-02T02:46:49.024Z,12.50
2023-05-02T02:47:58.355Z,11.67
2023-05-02T02:49:15.178Z,11.81
2023-05-02T02:50:23.537Z,12.26
2023-05-02T02:51:31.850Z,12.50
2023-05-02T02:52:40.330Z,12.66
2023-05-02T02:53:51.724Z,12.18
2023-05-02T02:54:59.264Z,11.68
2023-05-02T02:56:05.110Z,11.69
2023-05-02T02:57:17.278Z,11.94
2023-05-02T02:58:30.661Z,12.24
2023-05-02T02:59:35.301Z,12.54
2023-05-02T03:00:38.405Z,12.60
2023-05-02T03:01:46.858Z,12.22
2023-05-02T03:02:49.851Z,12.40
2023-05-02T03:03:53.444Z,12.47
2023-05-02T03:04:57.100Z,12.61
2023-05-02T03:05:59.436Z,12.74
2023-05-02T03:07:02.168Z,12.29
2023-05-02T03:08:03.959Z,12.12
2023-05-02T03:09:06.450Z,12.35
2023-05-02T03:10:08.245Z,12.51
2023-05-02T03:11:10.919Z,12.62
2023-05-02T03:12:12.678Z,12.07
2023-05-02T03:13:15.131Z,11.62
2023-05-02T03:14:16.634Z,11.72
2023-05-02T03:15:47.763Z,12.08
2023-05-02T03:16:50.946Z,12.31
2023-05-02T03:17:53.432Z,12.43
2023-05-02T03:18:54.964Z,12.35
2023-05-02T03:19:58.132Z,12.18
2023-05-02T03:20:59.781Z,12.24
2023-05-02T03:22:02.236Z,12.42
2023-05-02T03:23:03.754Z,12.55
2023-05-02T03:24:06.788Z,12.54
2023-05-02T03:25:09.064Z,12.50
2023-05-02T03:26:11.958Z,12.51
2023-05-02T03:27:13.713Z,12.63
2023-05-02T03:28:16.119Z,12.61
2023-05-02T03:29:17.716Z,12.38
2023-05-02T03:30:20.482Z,12.35
2023-05-02T03:31:25.407Z,12.26
2023-05-02T03:32:30.109Z,12.41
2023-05-02T03:33:32.592Z,12.57
2023-05-02T03:34:34.997Z,12.52
2023-05-02T03:35:36.519Z,11.70
2023-05-02T03:36:39.262Z,11.28
2023-05-02T03:37:40.753Z,10.75
2023-05-02T03:38:43.419Z,10.55
2023-05-02T03:39:44.929Z,11.00
2023-05-02T03:40:47.352Z,11.37
2023-05-02T03:41:48.937Z,11.46
2023-05-02T03:42:51.380Z,11.70
2023-05-02T03:43:52.876Z,11.87
2023-05-02T03:44:55.606Z,12.05
2023-05-02T03:45:57.820Z,12.20
2023-05-02T03:47:00.472Z,12.16
2023-05-02T03:48:03.540Z,12.24
2023-05-02T03:49:05.988Z,12.19
2023-05-02T03:50:08.386Z,12.25
2023-05-02T03:51:10.808Z,11.64
2023-05-02T03:52:12.327Z,11.42
2023-05-02T03:53:16.149Z,11.54
2023-05-02T03:54:19.053Z,11.65
2023-05-02T03:55:21.336Z,11.90
2023-05-02T03:56:24.292Z,11.86
2023-05-02T03:57:25.818Z,11.68
2023-05-02T03:58:28.572Z,11.28
2023-05-02T03:59:32.870Z,10.94
2023-05-02T04:00:35.419Z,10.61
2023-05-02T04:01:36.926Z,10.94
2023-05-02T04:02:39.837Z,10.69
2023-05-02T04:03:43.057Z,10.60
2023-05-02T04:04:45.712Z,10.83
2023-05-02T04:05:47.480Z,10.69
2023-05-02T04:06:49.944Z,10.83
2023-05-02T04:07:51.532Z,10.91
2023-05-02T04:08:54.006Z,11.05
2023-05-02T04:09:55.548Z,11.17
2023-05-02T04:10:58.004Z,11.41
2023-05-02T04:11:59.736Z,11.50
2023-05-02T04:13:03.124Z,11.24
2023-05-02T04:14:07.693Z,11.40
2023-05-02T04:15:11.455Z,11.31
2023-05-02T04:16:13.351Z,11.18
2023-05-02T04:17:16.462Z,10.86
2023-05-02T04:18:18.417Z,10.65
2023-05-02T04:19:22.537Z,10.35
2023-05-02T04:20:24.551Z,10.38
2023-05-02T04:21:27.592Z,10.35
2023-05-02T04:22:29.429Z,10.56
2023-05-02T04:23:32.256Z,10.75
2023-05-02T04:24:34.276Z,10.68
2023-05-02T04:25:37.234Z,10.59
2023-05-02T04:26:39.173Z,10.95
2023-05-02T04:27:41.999Z,11.09
2023-05-02T04:28:44.003Z,10.95
2023-05-02T04:29:49.142Z,10.88
2023-05-02T04:30:52.478Z,10.89
2023-05-02T04:31:54.411Z,11.06
2023-05-02T04:32:57.841Z,11.00
2023-05-02T04:33:59.792Z,11.15
2023-05-02T04:35:04.351Z,11.13
2023-05-02T04:36:06.958Z,10.92
2023-05-02T04:37:09.822Z,11.24
2023-05-02T04:38:12.628Z,11.54
2023-05-02T04:39:14.469Z,11.62
2023-05-02T04:40:17.219Z,11.59
2023-05-02T04:41:19.061Z,11.68
2023-05-02T04:42:21.940Z,11.22
2023-05-02T04:43:24.970Z,10.88
2023-05-02T04:44:27.104Z,10.58
2023-05-02T04:45:30.089Z,10.16
2023-05-02T04:46:31.931Z,10.20
2023-05-02T04:47:34.767Z,10.10
2023-05-02T04:48:41.917Z,10.13
2023-05-02T04:49:43.843Z,10.13
2023-05-02T04:50:48.564Z,10.32
2023-05-02T04:51:52.024Z,10.64
2023-05-02T04:52:54.887Z,10.57
2023-05-02T04:53:56.657Z,10.08
2023-05-02T04:54:59.508Z,9.98
2023-05-02T04:56:01.627Z,9.97
2023-05-02T04:57:06.849Z,9.99
2023-05-02T04:58:09.579Z,10.37
2023-05-02T04:59:12.703Z,10.58
2023-05-02T05:00:15.579Z,10.39
2023-05-02T05:01:18.494Z,10.24
2023-05-02T05:02:20.405Z,10.41
2023-05-02T05:03:23.371Z,10.29
2023-05-02T05:04:25.295Z,10.41
2023-05-02T05:05:28.200Z,10.62
2023-05-02T05:06:32.066Z,10.55
2023-05-02T05:07:34.981Z,10.81
2023-05-02T05:08:36.958Z,10.69
2023-05-02T05:09:39.829Z,10.48
2023-05-02T05:10:41.640Z,10.42
2023-05-02T05:11:46.172Z,10.79
2023-05-02T05:12:49.320Z,10.76
2023-05-02T05:13:52.038Z,10.61
2023-05-02T05:14:53.863Z,10.63
2023-05-02T05:15:56.607Z,10.59
2023-05-02T05:16:58.638Z,10.58
2023-05-02T05:18:01.797Z,10.86
2023-05-02T05:19:04.310Z,11.02
2023-05-02T05:20:09.592Z,11.25
2023-05-02T05:21:11.488Z,11.36
2023-05-02T05:22:15.594Z,11.34
2023-05-02T05:23:18.031Z,11.45
2023-05-02T05:24:20.774Z,11.55
2023-05-02T05:25:22.783Z,11.25
2023-05-02T05:26:26.821Z,11.50
2023-05-02T05:27:29.589Z,11.17
2023-05-02T05:28:31.545Z,11.17
2023-05-02T05:29:34.280Z,11.00
2023-05-02T05:30:37.082Z,11.03
2023-05-02T05:31:39.129Z,11.47
2023-05-02T05:32:41.994Z,11.82
2023-05-02T05:33:44.234Z,11.81
2023-05-02T05:34:47.128Z,11.69
2023-05-02T05:35:48.973Z,11.70
2023-05-02T05:36:51.954Z,11.45
2023-05-02T05:37:55.313Z,11.50
2023-05-02T05:38:58.166Z,11.85
2023-05-02T05:40:00.239Z,12.10
2023-05-02T05:41:04.973Z,12.10
2023-05-02T05:42:07.501Z,12.30
2023-05-02T05:43:10.268Z,12.44
2023-05-02T05:44:12.062Z,12.43
2023-05-02T05:45:16.405Z,12.58
2023-05-02T05:46:19.134Z,12.78
2023-05-02T05:47:22.054Z,12.90
2023-05-02T05:48:25.258Z,12.89
2023-05-02T05:49:27.205Z,13.02
2023-05-02T05:50:30.083Z,12.99
2023-05-02T05:51:32.861Z,13.01
2023-05-02T05:52:34.787Z,13.02
2023-05-02T05:53:38.908Z,12.50
2023-05-02T05:54:40.925Z,12.05
2023-05-02T05:55:43.731Z,11.72
2023-05-02T05:56:45.856Z,11.47
2023-05-02T05:57:48.638Z,11.38
2023-05-02T05:58:50.578Z,11.64
2023-05-02T05:59:53.368Z,11.97
2023-05-02T06:00:55.199Z,11.47
2023-05-02T06:01:59.469Z,11.22
2023-05-02T06:03:01.652Z,11.39
2023-05-02T06:04:05.119Z,11.73
2023-05-02T06:05:07.724Z,11.71
2023-05-02T06:06:10.611Z,11.83
2023-05-02T06:07:12.509Z,11.62
2023-05-02T06:08:15.246Z,11.68
2023-05-02T06:09:18.357Z,11.95
2023-05-02T06:10:21.169Z,11.83
2023-05-02T06:11:24.394Z,12.21
2023-05-02T06:12:27.135Z,12.32
2023-05-02T06:13:28.918Z,12.24
2023-05-02T06:14:31.962Z,12.11
2023-05-02T06:15:34.455Z,12.02
2023-05-02T06:16:37.360Z,12.23
2023-05-02T06:17:39.263Z,12.24
2023-05-02T06:18:42.115Z,12.65
2023-05-02T06:19:43.968Z,12.93
2023-05-02T06:20:46.693Z,13.10
2023-05-02T06:22:51.391Z,13.16
2023-05-02T06:23:53.501Z,13.38
2023-05-02T06:24:57.827Z,13.55
2023-05-02T06:26:00.738Z,13.47
2023-05-02T06:27:03.571Z,13.47
2023-05-02T06:28:05.771Z,13.59
2023-05-02T06:29:08.528Z,13.64
2023-05-02T06:30:10.913Z,13.61
2023-05-02T06:31:13.688Z,13.50
2023-05-02T06:32:15.954Z,13.63
2023-05-02T06:33:18.783Z,13.82
2023-05-02T06:34:21.766Z,13.92
2023-05-02T06:35:23.628Z,13.72
2023-05-02T06:36:27.599Z,13.88
2023-05-02T06:37:33.668Z,13.90
2023-05-02T06:38:36.585Z,13.97
2023-05-02T06:39:38.476Z,13.87
2023-05-02T06:40:45.229Z,14.01
2023-05-02T06:41:48.512Z,14.03
2023-05-02T06:42:51.381Z,14.15
2023-05-02T06:43:54.133Z,14.37
2023-05-02T06:44:57.151Z,14.45
2023-05-02T06:45:59.930Z,14.53
2023-05-02T06:47:01.863Z,14.60
2023-05-02T06:48:05.134Z,14.63
2023-05-02T06:49:07.946Z,14.71
2023-05-02T06:50:11.904Z,14.81
2023-05-02T06:51:14.946Z,14.86
2023-05-02T06:52:17.788Z,14.79
2023-05-02T06:53:20.814Z,14.90
2023-05-02T06:54:22.786Z,14.92
2023-05-02T06:55:25.739Z,15.00
2023-05-02T06:56:28.937Z,15.08
2023-05-02T06:57:31.959Z,14.86
2023-05-02T06:58:34.780Z,14.68
2023-05-02T06:59:36.700Z,14.46
2023-05-02T07:00:39.549Z,14.47
2023-05-02T07:01:42.393Z,14.47
2023-05-02T07:02:46.839Z,14.63
2023-05-02T07:03:49.966Z,14.73
2023-05-02T07:04:51.883Z,14.87
2023-05-02T07:05:54.608Z,14.83
2023-05-02T07:06:56.483Z,14.96
2023-05-02T07:07:59.525Z,15.09
2023-05-02T07:09:01.390Z,15.05
2023-05-02T07:10:04.523Z,14.56
2023-05-02T07:11:06.381Z,14.71
2023-05-02T07:12:10.524Z,14.62
2023-05-02T07:13:12.546Z,14.80
2023-05-02T07:14:15.463Z,14.91
2023-05-02T07:15:18.328Z,15.01
2023-05-02T07:16:20.265Z,15.06
2023-05-02T07:17:23.555Z,14.90
2023-05-02T07:18:25.753Z,14.86
2023-05-02T07:19:28.529Z,14.96
2023-05-02T07:20:30.388Z,14.80
2023-05-02T07:21:33.632Z,14.72
2023-05-02T07:22:35.459Z,14.65
2023-05-02T07:23:38.352Z,14.65
2023-05-02T07:24:40.689Z,14.78
2023-05-02T07:25:43.504Z,14.69
2023-05-02T07:26:45.726Z,14.64
2023-05-02T07:27:49.815Z,14.55
2023-05-02T07:28:51.701Z,14.57
2023-05-02T07:29:54.483Z,14.57
2023-05-02T07:30:56.402Z,14.64
2023-05-02T07:31:59.138Z,14.54
2023-05-02T07:33:01.294Z,14.45
2023-05-02T07:34:04.106Z,14.42
2023-05-02T07:35:07.322Z,14.58
2023-05-02T07:36:10.129Z,14.77
2023-05-02T07:37:12.093Z,14.52
2023-05-02T07:38:15.440Z,14.21
2023-05-02T07:39:17.524Z,14.40
2023-05-02T07:40:20.776Z,14.38
2023-05-02T07:41:23.573Z,14.50
2023-05-02T07:42:29.008Z,14.68
2023-05-02T07:43:33.981Z,14.72
2023-05-02T07:44:36.841Z,14.68
2023-05-02T07:45:39.632Z,14.80
2023-05-02T07:46:42.096Z,14.81
2023-05-02T07:47:44.959Z,14.80
2023-05-02T07:48:47.936Z,14.76
2023-05-02T07:49:52.247Z,14.83
2023-05-02T07:50:55.025Z,14.75
2023-05-02T07:51:57.992Z,14.82
2023-05-02T07:53:00.744Z,14.86
2023-05-02T07:54:03.889Z,14.89
2023-05-02T07:55:07.564Z,14.93
2023-05-02T07:56:10.296Z,14.92
2023-05-02T07:57:12.534Z,14.90
2023-05-02T07:58:15.280Z,14.58
2023-05-02T07:59:18.664Z,14.41
2023-05-02T08:00:21.563Z,14.41
2023-05-02T08:01:23.374Z,14.42
2023-05-02T08:02:26.380Z,14.39
2023-05-02T08:03:29.540Z,14.49
2023-05-02T08:04:32.550Z,14.57
2023-05-02T08:05:35.395Z,14.45
2023-05-02T08:06:38.474Z,14.35
2023-05-02T08:07:41.288Z,14.40
2023-05-02T08:08:43.164Z,14.47
2023-05-02T08:09:46.310Z,14.58
2023-05-02T08:10:51.240Z,14.62
2023-05-02T08:11:54.012Z,14.35
2023-05-02T08:12:56.952Z,14.31
2023-05-02T08:14:00.288Z,14.43
2023-05-02T08:15:07.970Z,14.38
2023-05-02T08:16:11.366Z,14.47
2023-05-02T08:17:13.269Z,14.52
2023-05-02T08:18:16.318Z,14.61
2023-05-02T08:19:18.122Z,14.65
2023-05-02T08:20:22.378Z,14.76
2023-05-02T08:21:25.314Z,14.78
2023-05-02T08:22:28.113Z,14.82
2023-05-02T08:23:31.346Z,14.89
2023-05-02T08:24:34.242Z,14.88
2023-05-02T08:25:37.100Z,14.99
2023-05-02T08:26:39.002Z,15.01
2023-05-02T08:27:41.735Z,15.21
2023-05-02T08:28:44.571Z,15.30
2023-05-02T08:29:47.383Z,15.43
2023-05-02T08:30:51.482Z,15.37
2023-05-02T08:31:53.254Z,15.38
2023-05-02T08:32:56.017Z,15.38
2023-05-02T08:33:58.859Z,15.40
2023-05-02T08:35:02.556Z,15.40
2023-05-02T08:36:11.946Z,15.12
2023-05-02T08:37:13.794Z,15.31
2023-05-02T08:38:16.676Z,15.44
2023-05-02T08:39:19.531Z,15.50
2023-05-02T08:40:34.001Z,15.56
2023-05-02T08:41:44.889Z,14.92
2023-05-02T08:42:48.498Z,14.96
2023-05-02T08:43:51.288Z,15.10
2023-05-02T08:44:53.304Z,15.22
2023-05-02T08:46:00.803Z,15.43
2023-05-02T08:47:04.211Z,15.52
2023-05-02T08:48:10.359Z,15.38
2023-05-02T08:49:16.553Z,15.34
2023-05-02T08:50:19.107Z,15.04
2023-05-02T08:51:24.322Z,14.80
2023-05-02T08:52:26.941Z,14.91
2023-05-02T08:53:32.851Z,15.22
2023-05-02T08:54:38.693Z,15.34
2023-05-02T08:55:42.068Z,15.56
2023-05-02T08:56:46.092Z,15.44
2023-05-02T08:57:48.981Z,15.41
2023-05-02T08:58:51.714Z,15.58
2023-05-02T08:59:54.476Z,15.52
2023-05-02T09:01:01.609Z,15.58
2023-05-02T09:02:23.778Z,15.40
2023-05-02T09:03:31.663Z,15.54
2023-05-02T09:04:35.789Z,15.46
2023-05-02T09:05:41.047Z,15.07
2023-05-02T09:06:43.881Z,14.95
2023-05-02T09:07:48.043Z,15.11
2023-05-02T09:08:53.285Z,15.29
2023-05-02T09:09:56.786Z,15.68
2023-05-02T09:10:59.750Z,15.80
2023-05-02T09:12:02.746Z,15.84
2023-05-02T09:13:30.569Z,16.16
2023-05-02T09:14:33.583Z,16.23
2023-05-02T09:15:36.494Z,16.16
2023-05-02T09:16:40.907Z,16.29
2023-05-02T09:17:44.271Z,16.06
2023-05-02T09:18:48.658Z,16.16
2023-05-02T09:20:00.340Z,16.38
2023-05-02T09:21:08.821Z,16.48
2023-05-02T09:22:11.789Z,16.16
2023-05-02T09:23:14.207Z,16.07
2023-05-02T09:24:18.474Z,16.09
2023-05-02T09:25:21.584Z,16.20
2023-05-02T09:26:28.855Z,16.10
2023-05-02T09:27:49.981Z,15.98
2023-05-02T09:28:55.831Z,16.00
2023-05-02T09:30:18.681Z,15.52
2023-05-02T09:32:51.188Z,14.52
2023-05-02T09:33:54.595Z,14.70
2023-05-02T09:35:06.992Z,15.17
2023-05-02T09:36:12.168Z,15.34
2023-05-02T09:37:35.687Z,15.75
2023-05-02T09:38:39.875Z,15.97
2023-05-02T09:39:42.658Z,16.25
2023-05-02T09:40:53.770Z,16.44
2023-05-02T09:41:56.810Z,16.54
2023-05-02T09:42:59.942Z,16.55
2023-05-02T09:44:02.817Z,16.77
2023-05-02T09:45:05.601Z,16.67
2023-05-02T09:46:10.760Z,16.55
2023-05-02T09:47:26.522Z,16.83
2023-05-02T09:48:32.102Z,17.15
2023-05-02T09:49:41.110Z,17.28
2023-05-02T09:50:43.000Z,17.52
2023-05-02T09:51:46.619Z,17.32
2023-05-02T09:53:01.102Z,17.43
2023-05-02T09:54:04.422Z,17.25
2023-05-02T09:55:20.761Z,16.65
2023-05-02T09:56:24.094Z,16.72
2023-05-02T09:57:40.181Z,16.82
2023-05-02T09:58:42.954Z,16.89
2023-05-02T09:59:56.436Z,17.03
2023-05-02T10:00:59.279Z,17.15
2023-05-02T10:02:04.300Z,17.32
2023-05-02T10:03:07.542Z,17.51
2023-05-02T10:04:16.309Z,17.38
2023-05-02T10:05:20.024Z,17.42
2023-05-02T10:06:23.103Z,17.16
2023-05-02T10:07:26.815Z,17.08
2023-05-02T10:08:29.846Z,16.77
2023-05-02T10:09:36.043Z,16.81
2023-05-02T10:10:41.682Z,17.01
2023-05-02T10:11:45.518Z,16.94
2023-05-02T10:12:52.875Z,17.14
2023-05-02T10:13:56.128Z,17.10
2023-05-02T10:15:03.573Z,16.53
2023-05-02T10:16:08.290Z,16.22
2023-05-02T10:17:15.082Z,16.28
2023-05-02T10:18:22.932Z,16.18
2023-05-02T10:19:31.367Z,15.58
2023-05-02T10:20:37.137Z,15.14
2023-05-02T10:21:45.843Z,14.82
2023-05-02T10:22:50.140Z,15.08
2023-05-02T10:23:54.134Z,15.55
2023-05-02T10:24:58.163Z,15.90
2023-05-02T10:26:01.320Z,15.87
2023-05-02T10:27:04.629Z,16.08
2023-05-02T10:28:07.529Z,16.40
2023-05-02T10:29:11.078Z,15.72
2023-05-02T10:30:13.405Z,15.43
2023-05-02T10:31:17.638Z,15.87
2023-05-02T10:32:22.826Z,16.14
2023-05-02T10:33:26.232Z,16.38
2023-05-02T10:34:32.594Z,16.68
2023-05-02T10:35:38.185Z,17.04
2023-05-02T10:36:41.577Z,16.68
2023-05-02T10:37:45.325Z,16.54
2023-05-02T10:38:48.446Z,16.98
2023-05-02T10:39:50.334Z,17.16
2023-05-02T10:40:57.279Z,17.22
2023-05-02T10:42:02.458Z,17.69
2023-05-02T10:43:06.494Z,17.11
2023-05-02T10:44:09.772Z,17.53
2023-05-02T10:45:13.138Z,17.70
2023-05-02T10:46:37.670Z,17.80
2023-05-02T10:47:39.770Z,17.84
2023-05-02T10:48:43.251Z,17.91
2023-05-02T10:49:52.262Z,18.15
2023-05-02T10:50:56.728Z,18.46
2023-05-02T10:51:58.988Z,18.59
2023-05-02T10:53:25.256Z,18.65
2023-05-02T10:54:28.122Z,18.59
2023-05-02T10:55:29.966Z,18.53
2023-05-02T10:56:32.740Z,18.59
2023-05-02T10:57:35.451Z,18.55
2023-05-02T10:58:37.443Z,18.03
2023-05-02T10:59:41.325Z,17.78
2023-05-02T11:00:43.201Z,17.45
2023-05-02T11:01:46.062Z,17.50
2023-05-02T11:02:50.086Z,17.59
2023-05-02T11:03:54.206Z,17.78
2023-05-02T11:05:03.077Z,17.84
2023-05-02T11:06:06.827Z,17.75
2023-05-02T11:07:19.917Z,17.78
2023-05-02T11:08:31.695Z,17.78
2023-05-02T11:09:34.174Z,17.72
2023-05-02T11:10:36.971Z,17.28
2023-05-02T11:11:40.823Z,17.35
2023-05-02T11:12:48.610Z,17.75
2023-05-02T11:13:51.553Z,17.82
2023-05-02T11:14:54.335Z,17.70
2023-05-02T11:15:59.805Z,17.60
2023-05-02T11:17:10.043Z,17.63
2023-05-02T11:18:14.367Z,17.69
2023-05-02T11:19:16.486Z,17.94
2023-05-02T11:20:21.299Z,17.80
2023-05-02T11:21:29.514Z,18.12
2023-05-02T11:22:32.168Z,18.37
2023-05-02T11:23:36.857Z,18.51
2023-05-02T11:24:39.870Z,18.65
2023-05-02T11:25:44.378Z,19.09
2023-05-02T11:26:46.507Z,19.39
2023-05-02T11:27:49.454Z,18.88
2023-05-02T11:28:52.759Z,18.69
2023-05-02T11:29:54.875Z,18.53
2023-05-02T11:30:58.079Z,18.54
2023-05-02T11:32:00.298Z,17.72
2023-05-02T11:33:16.210Z,17.26
2023-05-02T11:34:20.134Z,17.00
2023-05-02T11:35:24.970Z,16.65
2023-05-02T11:36:33.498Z,16.50
2023-05-02T11:37:36.598Z,16.17
2023-05-02T11:38:40.148Z,16.03
2023-05-02T11:39:42.438Z,15.40
2023-05-02T11:40:59.692Z,15.55
2023-05-02T11:42:01.574Z,15.45
2023-05-02T11:43:15.085Z,15.58
2023-05-02T11:44:18.100Z,15.17
2023-05-02T11:45:20.998Z,15.17
2023-05-02T11:46:23.890Z,15.17
2023-05-02T11:47:27.091Z,15.07
2023-05-02T11:48:31.180Z,15.13
2023-05-02T11:49:33.059Z,14.92
2023-05-02T11:50:48.708Z,14.68
2023-05-02T11:51:52.830Z,14.50
2023-05-02T11:52:54.991Z,14.38
2023-05-02T11:53:57.816Z,14.59
2023-05-02T11:54:59.872Z,14.96
2023-05-02T11:56:05.137Z,15.04
2023-05-02T11:57:07.567Z,14.88
2023-05-02T11:58:14.230Z,14.85
2023-05-02T11:59:17.014Z,14.68
2023-05-02T12:00:19.108Z,14.49
2023-05-02T12:01:22.415Z,14.37
2023-05-02T12:02:36.288Z,14.36
2023-05-02T12:03:39.187Z,14.17
2023-05-02T12:04:42.703Z,14.24
2023-05-02T12:05:46.879Z,14.34
2023-05-02T12:06:56.544Z,13.92
2023-05-02T12:07:58.495Z,13.91
2023-05-02T12:09:08.967Z,13.84
2023-05-02T12:10:12.918Z,13.93
2023-05-02T12:11:16.870Z,13.99
2023-05-02T12:12:20.969Z,13.93
2023-05-02T12:13:25.013Z,13.91
2023-05-02T12:14:28.251Z,13.51
2023-05-02T12:15:31.133Z,13.44
2023-05-02T12:16:34.094Z,13.63
2023-05-02T12:17:40.649Z,13.69
2023-05-02T12:18:43.796Z,13.75
2023-05-02T12:19:46.065Z,13.78
2023-05-02T12:20:51.857Z,13.88
2023-05-02T12:21:53.870Z,13.88
2023-05-02T12:22:57.522Z,13.76
2023-05-02T12:24:01.744Z,13.75
2023-05-02T12:25:05.795Z,13.96
2023-05-02T12:26:18.271Z,13.85
2023-05-02T12:27:21.088Z,13.82
2023-05-02T12:28:24.302Z,13.63
2023-05-02T12:29:38.174Z,13.79
2023-05-02T12:30:41.841Z,13.63
2023-05-02T12:31:52.223Z,13.69
2023-05-02T12:32:58.296Z,13.62
2023-05-02T12:34:01.767Z,13.76
2023-05-02T12:35:04.351Z,13.66
2023-05-02T12:36:09.933Z,13.70
2023-05-02T12:37:11.879Z,13.63
2023-05-02T12:38:16.917Z,13.73
2023-05-02T12:39:20.187Z,13.85
2023-05-02T12:40:22.306Z,14.05
2023-05-02T12:41:32.922Z,14.00
2023-05-02T12:42:35.844Z,13.97
2023-05-02T12:43:47.770Z,14.05
2023-05-02T12:44:53.239Z,14.18
2023-05-02T12:46:11.114Z,14.28
2023-05-02T12:47:15.890Z,14.11
2023-05-02T12:48:19.886Z,14.09
2023-05-02T12:49:22.836Z,14.09
2023-05-02T12:50:36.674Z,14.19
2023-05-02T12:51:41.556Z,14.22
2023-05-02T12:52:48.072Z,14.30
2023-05-02T12:53:50.862Z,14.43
2023-05-02T12:54:53.005Z,14.40
2023-05-02T12:56:03.795Z,14.49
2023-05-02T12:57:06.501Z,14.53
2023-05-02T12:58:09.638Z,13.92
2023-05-02T12:59:27.717Z,14.12
2023-05-02T13:00:30.963Z,13.79
2023-05-02T13:01:34.920Z,14.11
2023-05-02T13:02:37.148Z,14.30
2023-05-02T13:03:40.460Z,14.26
2023-05-02T13:04:43.304Z,13.90
2023-05-02T13:05:46.061Z,13.51
2023-05-02T13:06:50.570Z,13.89
2023-05-02T13:07:52.893Z,14.18
2023-05-02T13:08:55.650Z,14.42
2023-05-02T13:09:58.572Z,14.61
2023-05-02T13:11:01.659Z,14.83
2023-05-02T13:12:04.400Z,14.73
2023-05-02T13:13:07.784Z,14.92
2023-05-02T13:14:11.526Z,15.34
2023-05-02T13:15:14.794Z,15.31
2023-05-02T13:16:17.752Z,15.54
2023-05-02T13:17:19.741Z,15.32
2023-05-02T13:18:22.801Z,14.68
2023-05-02T13:19:24.844Z,14.15
2023-05-02T13:20:27.602Z,14.18
2023-05-02T13:21:31.152Z,14.33
2023-05-02T13:22:34.530Z,14.44
2023-05-02T13:23:39.447Z,14.37
2023-05-02T13:24:41.278Z,14.45
2023-05-02T13:25:44.323Z,14.86
2023-05-02T13:26:47.149Z,14.93
2023-05-02T13:27:48.941Z,14.63
2023-05-02T13:28:51.680Z,14.25
2023-05-02T13:29:53.506Z,14.41
2023-05-02T13:30:56.448Z,14.40
2023-05-02T13:31:59.217Z,14.50
2023-05-02T13:33:01.165Z,14.85
2023-05-02T13:34:04.553Z,15.09
2023-05-02T13:35:07.646Z,15.56
2023-05-02T13:36:10.487Z,15.62
2023-05-02T13:37:12.282Z,15.65
2023-05-02T13:38:16.379Z,15.96
2023-05-02T13:39:18.204Z,16.07
2023-05-02T13:40:21.088Z,16.34
2023-05-02T13:41:24.498Z,16.36
2023-05-02T13:42:27.329Z,16.19
2023-05-02T13:43:30.146Z,15.32
2023-05-02T13:44:32.304Z,15.36
2023-05-02T13:45:35.529Z,15.62
2023-05-02T13:46:37.739Z,15.19
2023-05-02T13:47:41.555Z,15.44
2023-05-02T13:48:44.573Z,15.37
2023-05-02T13:49:46.545Z,15.47
2023-05-02T13:50:49.457Z,15.18
2023-05-02T13:51:51.351Z,15.22
2023-05-02T13:52:54.221Z,14.88
2023-05-02T13:53:58.304Z,14.86
2023-05-02T13:55:01.570Z,15.03
2023-05-02T13:56:04.403Z,14.38
2023-05-02T13:57:07.334Z,14.25
2023-05-02T13:58:10.068Z,14.35
2023-05-02T13:59:11.945Z,14.42
2023-05-02T14:00:16.229Z,14.72
2023-05-02T14:01:18.456Z,14.69
2023-05-02T14:02:22.813Z,14.82
2023-05-02T14:03:24.965Z,15.05
2023-05-02T14:04:27.909Z,15.11
2023-05-02T14:05:29.797Z,15.22
2023-05-02T14:06:33.107Z,15.42
2023-05-02T14:07:35.048Z,15.29
2023-05-02T14:08:38.046Z,15.17
2023-05-02T14:09:42.135Z,15.22
2023-05-02T14:10:43.965Z,15.32
2023-05-02T14:11:47.240Z,15.34
2023-05-02T14:12:50.036Z,15.49